Time;durP1;ratioP1;P1;durP2;ratioP2;P2;SDS_P1;SDS_P2;PMS_P1;PMS_P2;Temp;Humidity;BMP_temperature;BMP_pressure;BME280_temperature;BME280_humidity;BME280_pressure;Samples;Min_cycle;Max_cycle;Signal;HPM_P1;HPM_P2
2022/09/12 00:01:28;;;;;;;2.20;0.60;;;13.70;99.90;;;;;;5102425;28;20878;-85
2022/09/12 00:03:57;;;;;;;0.60;0.50;;;13.70;99.90;;;;;;5099213;28;20532;-83
2022/09/12 00:06:26;;;;;;;0.60;0.47;;;13.80;99.90;;;;;;5102504;28;21191;-85
2022/09/12 00:08:55;;;;;;;0.50;0.50;;;13.70;99.90;;;;;;5102286;28;20469;-82
2022/09/12 00:11:22;;;;;;;0.60;0.57;;;13.70;99.90;;;;;;5100360;28;20461;-83
2022/09/12 00:13:49;;;;;;;0.50;0.50;;;13.70;99.90;;;;;;5103200;28;20512;-83
2022/09/12 00:16:20;;;;;;;0.90;0.60;;;13.60;99.90;;;;;;5104609;27;20816;-82
2022/09/12 00:18:48;;;;;;;0.80;0.70;;;13.60;99.90;;;;;;5100287;27;20455;-82
2022/09/12 00:21:16;;;;;;;0.70;0.50;;;13.60;99.90;;;;;;5101920;27;20548;-83
2022/09/12 00:23:43;;;;;;;0.50;0.50;;;13.60;99.90;;;;;;5103361;27;20462;-85
2022/09/12 00:26:10;;;;;;;1.80;0.70;;;13.60;99.90;;;;;;5099559;28;21140;-83
2022/09/12 00:28:38;;;;;;;1.00;0.70;;;13.60;99.90;;;;;;5102811;27;20539;-82
2022/09/12 00:31:07;;;;;;;1.40;0.53;;;13.60;99.90;;;;;;5099669;27;20471;-82
2022/09/12 00:33:37;;;;;;;1.20;0.73;;;13.60;99.90;;;;;;5108115;27;20562;-84
2022/09/12 00:36:05;;;;;;;0.77;0.63;;;13.60;99.90;;;;;;5097650;27;21127;-85
2022/09/12 00:38:34;;;;;;;1.07;0.80;;;13.60;99.90;;;;;;5101908;27;20463;-82
2022/09/12 00:41:01;;;;;;;1.67;0.70;;;13.60;99.90;;;;;;5101845;27;20577;-84
2022/09/12 00:43:38;;;;;;;1.00;0.60;;;13.70;99.90;;;;;;5100379;28;20463;-82
2022/09/12 00:46:11;;;;;;;1.10;0.80;;;13.60;99.90;;;;;;5103591;28;20464;-83
2022/09/12 00:48:44;;;;;;;0.67;0.67;;;13.60;99.90;;;;;;5102929;28;20925;-84
2022/09/12 00:51:12;;;;;;;4.10;0.90;;;13.50;99.90;;;;;;5102750;27;20914;-82
2022/09/12 00:53:43;;;;;;;0.67;0.50;;;13.60;99.90;;;;;;5102052;28;20459;-84
2022/09/12 00:56:13;;;;;;;0.60;0.60;;;13.60;99.90;;;;;;5105218;28;20470;-82
2022/09/12 00:58:44;;;;;;;2.60;0.67;;;13.50;99.90;;;;;;5098449;27;21060;-84
2022/09/12 01:01:11;;;;;;;1.30;1.13;;;13.60;99.90;;;;;;5099599;28;20539;-81
2022/09/12 01:03:40;;;;;;;1.60;1.07;;;13.60;99.90;;;;;;5101700;28;20466;-84
2022/09/12 01:06:15;;;;;;;1.93;0.87;;;13.60;99.90;;;;;;5106570;28;21086;-82
2022/09/12 01:08:44;;;;;;;1.03;0.87;;;13.70;99.90;;;;;;5103563;27;20459;-82
2022/09/12 01:11:12;;;;;;;0.93;0.80;;;13.70;99.90;;;;;;5103146;27;20459;-82
2022/09/12 01:13:40;;;;;;;4.50;1.00;;;13.60;99.90;;;;;;5126668;27;20466;-82
2022/09/12 01:16:08;;;;;;;0.70;0.70;;;13.60;99.90;;;;;;5128376;27;20519;-84
2022/09/12 01:18:46;;;;;;;2.57;1.00;;;13.50;99.90;;;;;;5128122;27;20454;-83
2022/09/12 01:21:24;;;;;;;2.20;1.03;;;13.50;99.90;;;;;;5116200;27;20534;-83
2022/09/12 01:24:36;;;;;;;1.07;1.00;;;13.50;99.90;;;;;;5099779;28;20520;-82
2022/09/12 01:27:30;;;;;;;0.80;0.80;;;13.40;99.90;;;;;;5099524;27;20933;-83
2022/09/12 01:30:16;;;;;;;1.43;1.33;;;13.50;99.90;;;;;;5098404;27;20997;-83
2022/09/12 01:32:56;;;;;;;0.97;0.97;;;13.40;99.90;;;;;;5094838;27;20879;-84
2022/09/12 01:35:29;;;;;;;2.90;0.73;;;13.40;99.90;;;;;;5106087;27;20542;-83
2022/09/12 01:38:08;;;;;;;0.77;0.77;;;13.40;99.90;;;;;;5099819;28;20467;-84
2022/09/12 01:40:45;;;;;;;0.80;0.80;;;13.40;99.90;;;;;;5104132;28;20560;-84
2022/09/12 01:43:20;;;;;;;1.00;0.83;;;13.30;99.90;;;;;;5102219;28;20458;-82
2022/09/12 01:45:57;;;;;;;0.90;0.80;;;13.20;99.90;;;;;;5101440;28;20547;-84
2022/09/12 01:48:30;;;;;;;2.63;1.20;;;13.20;99.90;;;;;;5102717;27;20522;-82
2022/09/12 01:51:05;;;;;;;0.80;0.80;;;13.20;99.90;;;;;;5104572;27;20549;-82
2022/09/12 01:53:38;;;;;;;1.27;0.87;;;13.20;99.90;;;;;;5103138;27;20533;-81
2022/09/12 01:56:10;;;;;;;1.20;1.00;;;13.10;99.90;;;;;;5100676;28;20929;-83
2022/09/12 01:58:43;;;;;;;1.20;1.10;;;13.10;99.90;;;;;;5102990;27;20467;-81
2022/09/12 02:01:16;;;;;;;5.33;1.13;;;13.10;99.90;;;;;;5099900;27;21188;-82
2022/09/12 02:03:48;;;;;;;1.20;0.93;;;13.10;99.90;;;;;;5097134;28;20451;-82
2022/09/12 02:06:20;;;;;;;1.63;0.80;;;13.20;99.90;;;;;;5100621;28;20455;-82
2022/09/12 02:08:50;;;;;;;1.53;1.33;;;13.10;99.90;;;;;;5104490;27;20545;-82
2022/09/12 02:11:19;;;;;;;1.13;1.03;;;13.10;99.90;;;;;;5104877;27;20584;-82
2022/09/12 02:13:53;;;;;;;1.57;1.47;;;13.10;99.90;;;;;;5102684;28;20450;-83
2022/09/12 02:16:27;;;;;;;1.70;1.20;;;13.10;99.90;;;;;;5099863;28;20465;-82
2022/09/12 02:18:59;;;;;;;0.70;0.70;;;13.00;99.90;;;;;;5099232;28;20467;-81
2022/09/12 02:21:27;;;;;;;1.60;1.33;;;13.00;99.90;;;;;;5102474;28;20485;-84
2022/09/12 02:23:58;;;;;;;1.83;1.40;;;13.00;99.90;;;;;;5103837;28;20869;-82
2022/09/12 02:26:31;;;;;;;1.17;1.07;;;13.00;99.90;;;;;;5103971;28;20469;-83
2022/09/12 02:28:58;;;;;;;1.37;1.27;;;13.10;99.90;;;;;;5095045;28;20490;-82
2022/09/12 02:31:33;;;;;;;0.90;0.90;;;13.00;99.90;;;;;;5097754;28;20810;-84
2022/09/12 02:34:12;;;;;;;1.00;0.80;;;13.10;99.90;;;;;;5098989;28;20534;-85
2022/09/12 02:36:57;;;;;;;0.77;0.77;;;13.00;99.90;;;;;;5104929;28;20461;-83
2022/09/12 02:39:25;;;;;;;0.87;0.87;;;13.00;99.90;;;;;;5106202;28;20453;-85
2022/09/12 02:41:55;;;;;;;0.70;0.70;;;13.00;99.90;;;;;;5098993;28;20482;-83
2022/09/12 02:44:23;;;;;;;1.37;1.27;;;13.00;99.90;;;;;;5096766;28;20490;-85
2022/09/12 02:46:56;;;;;;;1.03;0.90;;;12.90;99.90;;;;;;5096746;28;20475;-82
2022/09/12 02:49:23;;;;;;;1.73;0.80;;;12.90;99.90;;;;;;5099626;28;20461;-82
2022/09/12 02:51:50;;;;;;;1.53;1.17;;;13.00;99.90;;;;;;5101591;28;20469;-84
2022/09/12 02:54:19;;;;;;;1.80;0.67;;;13.00;99.90;;;;;;5098329;28;20458;-84
2022/09/12 02:56:46;;;;;;;0.90;0.83;;;13.00;99.90;;;;;;5100450;28;20535;-83
2022/09/12 02:59:18;;;;;;;0.80;0.80;;;13.00;99.90;;;;;;5101977;28;20526;-82
2022/09/12 03:02:01;;;;;;;0.77;0.70;;;12.90;99.90;;;;;;5099732;28;20876;-84
2022/09/12 03:04:46;;;;;;;7.97;1.20;;;13.00;99.90;;;;;;5097983;28;20462;-84
2022/09/12 03:07:18;;;;;;;1.43;0.70;;;13.00;99.90;;;;;;5104423;27;20522;-86
2022/09/12 03:09:52;;;;;;;3.60;3.40;;;12.90;99.90;;;;;;5104602;27;20502;-84
2022/09/12 03:12:39;;;;;;;1.77;1.00;;;12.90;99.90;;;;;;5105937;28;20494;-83
2022/09/12 03:15:32;;;;;;;1.23;1.03;;;12.90;99.90;;;;;;5108091;28;20455;-84
2022/09/12 03:18:16;;;;;;;1.17;1.07;;;12.90;99.90;;;;;;5104707;27;21215;-83
2022/09/12 03:20:50;;;;;;;0.93;0.90;;;12.90;99.90;;;;;;5103587;28;20825;-84
2022/09/12 03:23:25;;;;;;;0.77;0.77;;;12.90;99.90;;;;;;5102612;27;20466;-82
2022/09/12 03:25:59;;;;;;;1.10;0.97;;;12.90;99.90;;;;;;5106580;27;20864;-83
2022/09/12 03:28:26;;;;;;;1.30;0.73;;;12.90;99.90;;;;;;5104134;28;20517;-84
2022/09/12 03:30:55;;;;;;;3.53;1.23;;;12.80;99.90;;;;;;5105561;27;20476;-84
2022/09/12 03:33:24;;;;;;;1.60;0.93;;;12.80;99.90;;;;;;5103050;27;20555;-83
2022/09/12 03:35:55;;;;;;;1.77;1.23;;;12.80;99.90;;;;;;5104905;28;20469;-83
2022/09/12 03:38:22;;;;;;;1.30;1.07;;;12.80;99.90;;;;;;5102596;28;20520;-82
2022/09/12 03:40:49;;;;;;;1.93;1.83;;;12.80;99.90;;;;;;5106012;27;20483;-82
2022/09/12 03:43:16;;;;;;;1.47;1.30;;;12.70;99.90;;;;;;5106020;28;20518;-84
2022/09/12 03:45:43;;;;;;;1.30;1.07;;;12.60;99.90;;;;;;5103013;28;20818;-84
2022/09/12 03:48:10;;;;;;;1.30;1.20;;;12.60;99.90;;;;;;5102980;28;20988;-83
2022/09/12 03:50:39;;;;;;;1.60;1.50;;;12.60;99.90;;;;;;5105215;27;20467;-82
2022/09/12 03:53:06;;;;;;;1.30;1.10;;;12.50;99.90;;;;;;5104423;27;20546;-84
2022/09/12 03:55:33;;;;;;;1.50;1.40;;;12.50;99.90;;;;;;5100059;27;21029;-84
2022/09/12 03:58:00;;;;;;;1.10;0.83;;;12.40;99.90;;;;;;5105688;27;20464;-84
2022/09/12 04:00:27;;;;;;;1.77;1.67;;;12.30;99.90;;;;;;5103843;27;20468;-83
2022/09/12 04:02:55;;;;;;;1.43;1.00;;;12.30;99.90;;;;;;5104519;27;20542;-83
2022/09/12 04:05:22;;;;;;;3.87;1.73;;;12.20;99.90;;;;;;5100572;27;20501;-84
2022/09/12 04:07:51;;;;;;;1.87;1.77;;;12.20;99.90;;;;;;5098487;28;20482;-85
2022/09/12 04:10:18;;;;;;;3.70;1.20;;;12.10;99.90;;;;;;5102150;27;20469;-84
2022/09/12 04:12:45;;;;;;;1.40;1.30;;;12.10;99.90;;;;;;5101100;27;20527;-84
2022/09/12 04:15:12;;;;;;;1.23;1.07;;;12.10;99.90;;;;;;5104801;27;20538;-83
2022/09/12 04:17:39;;;;;;;1.27;1.00;;;12.10;99.90;;;;;;5104314;27;20565;-85
2022/09/12 04:20:07;;;;;;;1.00;0.80;;;12.10;99.90;;;;;;5104713;27;20460;-82
2022/09/12 04:22:34;;;;;;;1.67;1.57;;;12.20;99.90;;;;;;5108046;27;21084;-84
2022/09/12 04:25:03;;;;;;;3.90;1.20;;;12.20;99.90;;;;;;5101858;27;20481;-84
2022/09/12 04:27:30;;;;;;;3.77;1.00;;;12.30;99.90;;;;;;5100064;28;20465;-83
2022/09/12 04:29:58;;;;;;;1.57;1.27;;;12.30;99.90;;;;;;5101177;28;20484;-82
2022/09/12 04:32:25;;;;;;;1.53;1.43;;;12.30;99.90;;;;;;5115290;27;20484;-85
2022/09/12 04:34:52;;;;;;;1.20;1.10;;;12.20;99.90;;;;;;5126896;27;20495;-83
2022/09/12 04:37:20;;;;;;;1.87;0.90;;;12.20;99.90;;;;;;5121898;27;20901;-85
2022/09/12 04:39:50;;;;;;;1.47;1.33;;;12.20;99.90;;;;;;5118686;27;20492;-85
2022/09/12 04:42:19;;;;;;;1.90;1.00;;;12.20;99.90;;;;;;5100619;27;20733;-83
2022/09/12 04:44:46;;;;;;;1.20;1.10;;;12.30;99.90;;;;;;5106033;28;20514;-83
2022/09/12 04:47:13;;;;;;;1.83;1.47;;;12.30;99.90;;;;;;5104440;27;20458;-84
2022/09/12 04:49:39;;;;;;;1.47;1.37;;;12.30;99.90;;;;;;5104522;27;20455;-79
2022/09/12 04:52:06;;;;;;;2.93;1.67;;;12.30;99.90;;;;;;5100846;27;20463;-82
2022/09/12 04:54:34;;;;;;;2.27;1.33;;;12.30;99.90;;;;;;5101155;27;20497;-81
2022/09/12 04:57:01;;;;;;;1.53;1.30;;;12.30;99.90;;;;;;5105115;27;20463;-82
2022/09/12 04:59:29;;;;;;;1.60;1.50;;;12.40;99.90;;;;;;5098346;28;21086;-82
2022/09/12 05:01:56;;;;;;;1.57;0.97;;;12.50;99.90;;;;;;5093532;27;20488;-82
2022/09/12 05:04:23;;;;;;;1.70;1.50;;;12.50;99.90;;;;;;5101523;27;20463;-81
2022/09/12 05:06:50;;;;;;;1.93;1.10;;;12.50;99.90;;;;;;5094494;27;20467;-80
2022/09/12 05:09:17;;;;;;;1.43;0.73;;;12.60;99.90;;;;;;5095004;27;20453;-80
2022/09/12 05:11:45;;;;;;;1.50;1.20;;;12.70;99.90;;;;;;5100393;27;20528;-81
2022/09/12 05:14:12;;;;;;;2.00;1.40;;;12.70;99.90;;;;;;5094267;27;20462;-80
2022/09/12 05:16:41;;;;;;;1.87;1.43;;;12.80;99.90;;;;;;5102059;28;20544;-81
2022/09/12 05:19:09;;;;;;;2.73;2.20;;;12.80;99.90;;;;;;5101630;27;20462;-80
2022/09/12 05:21:36;;;;;;;3.43;2.00;;;12.90;99.90;;;;;;5100063;27;20512;-80
2022/09/12 05:24:05;;;;;;;1.40;1.30;;;12.90;99.90;;;;;;5098145;27;20948;-81
2022/09/12 05:26:32;;;;;;;3.20;2.60;;;12.90;99.90;;;;;;5094592;27;20465;-81
2022/09/12 05:28:59;;;;;;;2.80;2.57;;;13.00;99.90;;;;;;5091380;27;20576;-80
2022/09/12 05:31:27;;;;;;;1.57;1.40;;;13.00;99.90;;;;;;5095081;27;20842;-81
2022/09/12 05:33:56;;;;;;;2.80;2.60;;;13.10;99.90;;;;;;5099030;27;20469;-81
2022/09/12 05:36:25;;;;;;;4.63;1.97;;;13.10;99.90;;;;;;5102010;27;20459;-81
2022/09/12 05:38:53;;;;;;;1.40;1.13;;;13.20;99.90;;;;;;5098081;27;20526;-81
2022/09/12 05:41:21;;;;;;;2.87;1.87;;;13.30;99.90;;;;;;5099655;27;20483;-80
2022/09/12 05:43:52;;;;;;;2.50;2.30;;;13.30;99.90;;;;;;5105482;27;20471;-81
2022/09/12 05:46:22;;;;;;;3.40;2.10;;;13.30;99.90;;;;;;5100893;28;20466;-80
2022/09/12 05:48:50;;;;;;;3.37;1.70;;;13.40;99.90;;;;;;5095669;28;20872;-80
2022/09/12 05:51:20;;;;;;;2.40;1.93;;;13.40;99.90;;;;;;5094996;28;20524;-81
2022/09/12 05:53:48;;;;;;;2.23;2.00;;;13.40;99.90;;;;;;5095797;28;21207;-81
2022/09/12 05:56:17;;;;;;;1.67;1.43;;;13.40;99.90;;;;;;5095106;27;20577;-80
2022/09/12 05:58:46;;;;;;;2.20;1.90;;;13.50;99.90;;;;;;5095567;27;20497;-81
2022/09/12 06:01:16;;;;;;;2.60;2.40;;;13.40;99.90;;;;;;5100162;28;20489;-82
2022/09/12 06:03:44;;;;;;;2.73;1.93;;;13.50;99.90;;;;;;5099223;28;20455;-79
2022/09/12 06:06:13;;;;;;;1.80;1.70;;;13.50;99.90;;;;;;5093659;28;20463;-83
2022/09/12 06:08:42;;;;;;;2.67;1.33;;;13.60;99.90;;;;;;5097047;28;20973;-82
2022/09/12 06:11:11;;;;;;;1.83;1.10;;;13.60;99.90;;;;;;5098083;28;20519;-82
2022/09/12 06:13:39;;;;;;;2.10;1.50;;;13.60;99.90;;;;;;5101700;28;20561;-82
2022/09/12 06:16:08;;;;;;;1.20;0.93;;;13.80;99.90;;;;;;5093156;28;20469;-83
2022/09/12 06:18:36;;;;;;;2.27;2.07;;;14.00;99.90;;;;;;5102308;27;20906;-81
2022/09/12 06:21:04;;;;;;;2.47;2.00;;;14.10;99.90;;;;;;5093229;28;20921;-83
2022/09/12 06:23:32;;;;;;;1.37;1.27;;;14.10;99.90;;;;;;5100946;28;20460;-80
2022/09/12 06:26:00;;;;;;;2.40;2.20;;;14.10;99.90;;;;;;5099717;28;20607;-81
2022/09/12 06:28:27;;;;;;;3.10;1.40;;;14.10;99.90;;;;;;5102683;28;20470;-80
2022/09/12 06:30:54;;;;;;;2.80;2.20;;;14.10;99.90;;;;;;5105994;28;20480;-82
2022/09/12 06:33:21;;;;;;;3.20;2.27;;;14.20;99.90;;;;;;5093968;28;20486;-82
2022/09/12 06:35:48;;;;;;;2.93;1.50;;;14.40;99.90;;;;;;5095771;28;20511;-82
2022/09/12 06:38:16;;;;;;;1.60;1.50;;;14.60;99.90;;;;;;5092352;28;20547;-84
2022/09/12 06:40:44;;;;;;;1.73;1.23;;;14.90;99.90;;;;;;5100347;27;20470;-82
2022/09/12 06:43:13;;;;;;;1.70;1.60;;;15.00;99.90;;;;;;5106681;27;21588;-83
2022/09/12 06:45:48;;;;;;;2.73;1.80;;;15.30;99.90;;;;;;5109608;27;20502;-81
2022/09/12 06:48:15;;;;;;;1.93;1.83;;;15.40;99.90;;;;;;5113183;27;20459;-80
2022/09/12 06:50:42;;;;;;;2.13;1.77;;;15.30;99.90;;;;;;5113410;27;20561;-82
2022/09/12 06:53:09;;;;;;;1.80;1.70;;;15.20;99.90;;;;;;5103858;27;20525;-81
2022/09/12 06:55:36;;;;;;;2.50;1.30;;;15.30;99.90;;;;;;5102263;27;20551;-81
2022/09/12 06:58:04;;;;;;;2.23;2.03;;;15.30;99.90;;;;;;5097955;27;20463;-80
2022/09/12 07:00:32;;;;;;;1.43;1.33;;;15.30;99.90;;;;;;5116549;27;20519;-81
2022/09/12 07:02:59;;;;;;;2.10;1.03;;;15.30;99.90;;;;;;5101932;28;20550;-84
2022/09/12 07:05:26;;;;;;;2.23;1.80;;;15.40;99.90;;;;;;5107359;27;20456;-85
2022/09/12 07:07:53;;;;;;;2.07;1.83;;;15.40;99.90;;;;;;5098775;27;20480;-83
2022/09/12 07:10:21;;;;;;;1.50;1.40;;;15.40;99.90;;;;;;5099400;27;20548;-85
2022/09/12 07:12:48;;;;;;;1.90;1.80;;;15.50;99.90;;;;;;5107488;27;20963;-82
2022/09/12 07:15:16;;;;;;;1.87;1.13;;;15.50;99.90;;;;;;5101321;27;20459;-85
2022/09/12 07:17:45;;;;;;;1.27;1.10;;;15.50;99.90;;;;;;5111318;27;20452;-84
2022/09/12 07:20:12;;;;;;;7.67;1.10;;;15.50;99.90;;;;;;5103271;27;20468;-81
2022/09/12 07:22:40;;;;;;;1.63;1.30;;;15.60;99.90;;;;;;5112133;27;20485;-82
2022/09/12 07:25:07;;;;;;;2.30;2.10;;;15.80;99.90;;;;;;5113398;27;20551;-84
2022/09/12 07:27:36;;;;;;;1.60;1.37;;;16.10;99.90;;;;;;5098178;27;20461;-83
2022/09/12 07:30:04;;;;;;;3.70;1.07;;;16.00;99.90;;;;;;5093388;28;20487;-81
2022/09/12 07:32:31;;;;;;;3.57;1.83;;;15.90;99.90;;;;;;5102142;27;20466;-82
2022/09/12 07:34:59;;;;;;;1.87;1.23;;;15.80;99.90;;;;;;5119497;27;20460;-82
2022/09/12 07:37:28;;;;;;;1.10;0.90;;;15.70;99.90;;;;;;5099206;27;21018;-84
2022/09/12 07:39:55;;;;;;;2.03;1.30;;;15.90;99.90;;;;;;5111485;28;20463;-83
2022/09/12 07:42:22;;;;;;;2.53;2.23;;;16.40;99.90;;;;;;5104102;28;20492;-81
2022/09/12 07:44:49;;;;;;;1.50;1.20;;;16.70;99.90;;;;;;5126310;27;20465;-81
2022/09/12 07:47:17;;;;;;;1.53;1.10;;;16.90;99.90;;;;;;5122588;27;20478;-83
2022/09/12 07:49:44;;;;;;;2.83;1.10;;;17.20;99.90;;;;;;5109083;28;20494;-82
2022/09/12 07:52:12;;;;;;;0.77;0.77;;;17.40;99.90;;;;;;5106018;27;20469;-81
2022/09/12 07:54:39;;;;;;;2.07;1.80;;;17.50;99.90;;;;;;5103591;27;20450;-82
2022/09/12 07:57:06;;;;;;;1.20;1.03;;;17.60;99.90;;;;;;5107874;27;20459;-81
2022/09/12 07:59:33;;;;;;;1.23;1.00;;;17.60;99.90;;;;;;5104618;27;21022;-83
2022/09/12 08:02:00;;;;;;;1.80;1.27;;;17.60;99.90;;;;;;5106545;27;20980;-81
2022/09/12 08:04:27;;;;;;;1.63;1.53;;;17.70;99.90;;;;;;5107508;27;21086;-82
2022/09/12 08:06:54;;;;;;;1.10;1.10;;;17.80;99.90;;;;;;5103956;27;20527;-82
2022/09/12 08:09:22;;;;;;;1.67;1.00;;;17.90;99.90;;;;;;5109255;27;20469;-82
2022/09/12 08:11:49;;;;;;;1.33;1.00;;;17.80;99.90;;;;;;5100797;27;20469;-81
2022/09/12 08:14:17;;;;;;;1.33;1.23;;;17.70;99.90;;;;;;5103575;28;20517;-81
2022/09/12 08:16:44;;;;;;;1.50;1.40;;;17.70;99.90;;;;;;5104419;27;20468;-83
2022/09/12 08:19:11;;;;;;;2.63;1.87;;;17.70;99.90;;;;;;5098719;27;20454;-85
2022/09/12 08:21:38;;;;;;;1.30;1.20;;;17.60;99.90;;;;;;5091144;28;20949;-84
2022/09/12 08:24:06;;;;;;;1.00;0.90;;;17.40;99.90;;;;;;5102589;28;20961;-82
2022/09/12 08:26:35;;;;;;;1.73;1.63;;;17.20;99.90;;;;;;5102973;27;20443;-82
2022/09/12 08:29:03;;;;;;;2.03;1.93;;;17.50;99.90;;;;;;5105956;27;20514;-82
2022/09/12 08:31:35;;;;;;;2.63;2.43;;;17.60;99.90;;;;;;5101757;27;20473;-83
2022/09/12 08:34:02;;;;;;;1.70;1.60;;;17.90;99.90;;;;;;5097289;27;20455;-81
2022/09/12 08:36:29;;;;;;;2.73;2.60;;;17.90;99.90;;;;;;5099452;27;20539;-82
2022/09/12 08:38:58;;;;;;;3.23;2.17;;;17.80;99.90;;;;;;5099143;27;20451;-84
2022/09/12 08:41:29;;;;;;;2.70;2.20;;;17.80;99.90;;;;;;5095798;27;20458;-82
2022/09/12 08:44:18;;;;;;;2.23;2.03;;;18.00;99.90;;;;;;5104571;27;20489;-85
2022/09/12 08:46:57;;;;;;;4.00;2.30;;;18.10;99.90;;;;;;5106636;27;20902;-83
2022/09/12 08:49:29;;;;;;;3.10;2.03;;;18.30;99.90;;;;;;5114351;27;20502;-82
2022/09/12 08:51:59;;;;;;;2.20;2.00;;;18.50;99.90;;;;;;5104556;27;20572;-82
2022/09/12 08:54:29;;;;;;;2.00;1.90;;;18.60;99.90;;;;;;5102757;27;20446;-81
2022/09/12 08:57:02;;;;;;;2.30;2.10;;;18.40;99.90;;;;;;5099026;28;20478;-81
2022/09/12 08:59:35;;;;;;;1.80;1.70;;;18.50;99.90;;;;;;5108859;27;20442;-85
2022/09/12 09:02:05;;;;;;;3.07;2.77;;;18.20;99.90;;;;;;5101075;27;20451;-79
2022/09/12 09:04:44;;;;;;;2.70;2.60;;;18.10;99.90;;;;;;5102383;27;20950;-81
2022/09/12 09:07:41;;;;;;;4.10;3.70;;;18.10;99.90;;;;;;5098248;27;21144;-82
2022/09/12 09:10:18;;;;;;;2.57;2.37;;;18.30;99.90;;;;;;5101449;28;20458;-81
2022/09/12 09:12:54;;;;;;;2.67;2.17;;;18.70;99.90;;;;;;5104770;27;20499;-81
2022/09/12 09:15:39;;;;;;;4.60;2.80;;;18.70;99.90;;;;;;5097357;27;20462;-86
2022/09/12 09:18:15;;;;;;;3.53;3.23;;;18.60;99.90;;;;;;5104820;27;20575;-83
2022/09/12 09:20:48;;;;;;;3.80;3.40;;;18.70;99.90;;;;;;5099386;27;20572;-83
2022/09/12 09:23:21;;;;;;;2.10;1.90;;;18.90;99.90;;;;;;5092589;27;20481;-82
2022/09/12 09:25:56;;;;;;;2.73;2.53;;;19.20;99.90;;;;;;5103782;27;21190;-82
2022/09/12 09:28:30;;;;;;;3.10;2.60;;;19.20;99.90;;;;;;5105240;27;20541;-83
2022/09/12 09:30:59;;;;;;;2.80;2.60;;;19.40;99.90;;;;;;5102145;27;21021;-82
2022/09/12 09:33:33;;;;;;;2.73;2.50;;;19.60;99.90;;;;;;5101548;27;20465;-82
2022/09/12 09:36:10;;;;;;;2.37;1.77;;;19.40;99.90;;;;;;5104540;27;20520;-82
2022/09/12 09:38:46;;;;;;;3.50;3.20;;;19.10;99.90;;;;;;5105313;27;20447;-81
2022/09/12 09:41:34;;;;;;;3.07;2.80;;;19.20;99.90;;;;;;5107801;27;21011;-81
2022/09/12 09:44:01;;;;;;;2.90;2.70;;;19.20;99.90;;;;;;5100518;27;20563;-82
2022/09/12 09:46:30;;;;;;;2.90;2.80;;;19.40;99.90;;;;;;5090205;28;20522;-84
2022/09/12 09:48:58;;;;;;;2.77;2.57;;;19.70;99.90;;;;;;5107341;27;21048;-84
2022/09/12 09:51:27;;;;;;;2.20;2.10;;;19.70;99.90;;;;;;5114584;27;20445;-82
2022/09/12 09:53:57;;;;;;;3.20;2.70;;;19.30;99.90;;;;;;5100202;27;21139;-82
2022/09/12 09:56:33;;;;;;;2.80;2.43;;;18.90;99.90;;;;;;5106878;27;20464;-84
2022/09/12 09:59:10;;;;;;;2.60;2.40;;;19.00;99.90;;;;;;5094920;27;20813;-82
2022/09/12 10:01:45;;;;;;;2.57;2.37;;;19.30;99.90;;;;;;5102322;27;20446;-83
2022/09/12 10:04:19;;;;;;;2.70;2.40;;;19.40;99.90;;;;;;5094768;27;20586;-82
2022/09/12 10:06:47;;;;;;;2.30;2.10;;;19.80;99.90;;;;;;5102241;28;20459;-82
2022/09/12 10:09:20;;;;;;;2.17;1.70;;;20.10;99.90;;;;;;5097995;27;21279;-84
2022/09/12 10:11:49;;;;;;;2.07;1.83;;;20.40;99.90;;;;;;5103164;28;20458;-84
2022/09/12 10:14:35;;;;;;;1.43;1.33;;;20.60;99.90;;;;;;5107890;27;20611;-81
2022/09/12 10:17:27;;;;;;;2.20;2.00;;;20.80;99.90;;;;;;5097479;28;20478;-83
2022/09/12 10:19:54;;;;;;;1.67;1.33;;;20.90;99.90;;;;;;5101727;27;20500;-82
2022/09/12 10:22:24;;;;;;;2.13;1.93;;;20.90;99.90;;;;;;5110044;27;20461;-81
2022/09/12 10:24:52;;;;;;;2.33;1.90;;;20.70;99.90;;;;;;5096315;28;20461;-82
2022/09/12 10:27:22;;;;;;;3.70;2.20;;;20.80;99.90;;;;;;5100757;28;21044;-84
2022/09/12 10:29:53;;;;;;;3.60;2.20;;;20.40;99.90;;;;;;5100428;28;20503;-82
2022/09/12 10:32:27;;;;;;;1.83;1.73;;;20.00;99.90;;;;;;5100669;28;20456;-83
2022/09/12 10:34:58;;;;;;;4.20;2.10;;;19.60;99.90;;;;;;5097040;28;20486;-82
2022/09/12 10:37:30;;;;;;;9.30;2.17;;;19.30;99.90;;;;;;5107294;28;20863;-82
2022/09/12 10:39:59;;;;;;;0.90;0.80;;;19.00;99.90;;;;;;5103752;28;21225;-82
2022/09/12 10:42:45;;;;;;;1.30;1.13;;;18.90;99.90;;;;;;5096879;28;21063;-82
2022/09/12 10:45:25;;;;;;;1.00;0.90;;;19.40;99.90;;;;;;5105847;28;20545;-82
2022/09/12 10:47:55;;;;;;;2.30;1.80;;;19.90;99.90;;;;;;5105152;28;20457;-83
2022/09/12 10:50:25;;;;;;;4.90;2.87;;;20.40;99.90;;;;;;5117953;28;20450;-86
2022/09/12 10:52:53;;;;;;;1.50;1.40;;;20.70;99.90;;;;;;5131307;28;20489;-83
2022/09/12 10:55:26;;;;;;;1.10;1.00;;;20.70;99.90;;;;;;5105965;28;20926;-83
2022/09/12 10:58:15;;;;;;;1.27;1.17;;;20.80;99.90;;;;;;5091288;28;20447;-83
2022/09/12 11:00:50;;;;;;;1.13;1.03;;;21.20;99.90;;;;;;5101343;28;20462;-83
2022/09/12 11:03:28;;;;;;;1.47;1.03;;;21.20;99.90;;;;;;5103801;28;20891;-81
2022/09/12 11:05:58;;;;;;;1.23;1.10;;;21.10;99.90;;;;;;5104278;28;20441;-82
2022/09/12 11:08:48;;;;;;;1.63;1.53;;;21.00;99.90;;;;;;5107764;28;20493;-81
2022/09/12 11:11:30;;;;;;;2.03;1.93;;;20.90;99.90;;;;;;5104886;28;20446;-82
2022/09/12 11:14:11;;;;;;;0.80;0.80;;;20.90;99.90;;;;;;5102822;28;20461;-80
2022/09/12 11:16:42;;;;;;;0.73;0.73;;;21.00;99.90;;;;;;5109200;28;20448;-83
2022/09/12 11:19:37;;;;;;;0.87;0.87;;;21.20;99.90;;;;;;5100690;27;20515;-80
2022/09/12 11:22:22;;;;;;;0.93;0.80;;;21.10;99.90;;;;;;5103031;27;20492;-81
2022/09/12 11:25:06;;;;;;;0.80;0.70;;;21.00;99.90;;;;;;5093601;28;21044;-81
2022/09/12 11:27:55;;;;;;;0.83;0.83;;;21.20;99.90;;;;;;5115190;27;20517;-81
2022/09/12 11:30:22;;;;;;;1.50;0.80;;;21.10;99.90;;;;;;5104490;27;20481;-80
2022/09/12 11:33:23;;;;;;;1.10;1.00;;;21.10;99.90;;;;;;5094683;27;20450;-81
2022/09/12 11:35:56;;;;;;;0.60;0.60;;;21.20;99.90;;;;;;5075600;27;20619;-81
2022/09/12 11:38:40;;;;;;;1.57;1.13;;;21.20;99.90;;;;;;5106904;27;21014;-81
2022/09/12 11:41:11;;;;;;;1.07;0.73;;;21.30;99.90;;;;;;5094902;27;20450;-81
2022/09/12 11:43:43;;;;;;;1.90;0.60;;;21.20;99.90;;;;;;5100004;27;20985;-81
2022/09/12 11:46:18;;;;;;;1.10;1.00;;;21.10;99.90;;;;;;5107473;27;20469;-81
2022/09/12 11:48:51;;;;;;;1.20;1.00;;;21.20;99.90;;;;;;5112763;27;20536;-81
2022/09/12 11:51:24;;;;;;;1.90;1.00;;;21.20;99.90;;;;;;5097334;27;20442;-82
2022/09/12 11:54:02;;;;;;;1.00;0.90;;;21.70;99.90;;;;;;5101948;27;20478;-81
2022/09/12 11:56:29;;;;;;;0.80;0.80;;;21.60;99.90;;;;;;5103055;27;20530;-83
2022/09/12 11:59:02;;;;;;;0.70;0.70;;;21.50;99.90;;;;;;5097201;27;20823;-80
2022/09/12 12:01:34;;;;;;;0.70;0.70;;;21.50;99.90;;;;;;5098855;27;20466;-80
2022/09/12 12:04:07;;;;;;;1.37;1.27;;;21.50;99.90;;;;;;5098311;28;20494;-81
2022/09/12 12:06:49;;;;;;;1.20;1.00;;;21.50;99.90;;;;;;5099200;27;20450;-81
2022/09/12 12:09:16;;;;;;;2.20;1.00;;;21.50;99.90;;;;;;5105354;27;20513;-85
2022/09/12 12:11:49;;;;;;;0.90;0.73;;;21.50;99.90;;;;;;5116778;27;20449;-82
2022/09/12 12:14:20;;;;;;;1.40;1.00;;;21.70;99.90;;;;;;5105363;27;20446;-82
2022/09/12 12:16:48;;;;;;;0.80;0.80;;;21.70;99.90;;;;;;5110884;27;20539;-84
2022/09/12 12:19:33;;;;;;;0.70;0.70;;;21.50;99.90;;;;;;5114027;27;20438;-83
2022/09/12 12:22:15;;;;;;;2.10;0.77;;;21.60;99.90;;;;;;5105681;27;20833;-81
2022/09/12 12:24:58;;;;;;;0.80;0.80;;;21.80;99.80;;;;;;5096895;27;20478;-81
2022/09/12 12:27:46;;;;;;;1.43;0.53;;;21.70;98.20;;;;;;5098028;27;20462;-81
2022/09/12 12:30:59;;;;;;;1.00;0.80;;;21.70;98.40;;;;;;5105361;27;20494;-85
2022/09/12 12:34:05;;;;;;;0.80;0.60;;;21.80;99.90;;;;;;5098073;27;20493;-83
2022/09/12 12:36:39;;;;;;;0.90;0.90;;;22.10;99.90;;;;;;5100683;27;20455;-80
2022/09/12 12:39:48;;;;;;;1.17;1.07;;;21.90;99.30;;;;;;5111106;27;20461;-82
2022/09/12 12:43:01;;;;;;;1.00;0.80;;;22.00;99.00;;;;;;5083244;27;21158;-81
2022/09/12 12:46:04;;;;;;;0.70;0.70;;;21.90;98.20;;;;;;5035233;28;20465;-80
2022/09/12 12:49:02;;;;;;;0.80;0.80;;;21.70;97.80;;;;;;5099264;27;20474;-82
2022/09/12 12:51:57;;;;;;;1.10;0.77;;;22.00;97.80;;;;;;5101455;27;20896;-81
2022/09/12 12:54:47;;;;;;;0.80;0.80;;;22.10;98.60;;;;;;5102088;27;20454;-80
2022/09/12 12:57:29;;;;;;;1.10;1.00;;;22.10;99.90;;;;;;5105531;27;20525;-81
2022/09/12 13:00:01;;;;;;;0.70;0.60;;;22.00;99.10;;;;;;5102216;27;20932;-80
2022/09/12 13:02:32;;;;;;;0.90;0.80;;;22.20;98.70;;;;;;5104737;27;20793;-85
2022/09/12 13:05:04;;;;;;;0.70;0.70;;;22.10;97.70;;;;;;5106081;27;20544;-82
2022/09/12 13:07:36;;;;;;;1.50;1.20;;;22.00;97.50;;;;;;5101527;27;20858;-83
2022/09/12 13:10:06;;;;;;;1.00;1.00;;;21.90;99.00;;;;;;5099665;28;20958;-83
2022/09/12 13:12:36;;;;;;;3.60;0.80;;;22.10;98.70;;;;;;5098474;27;20470;-79
2022/09/12 13:15:24;;;;;;;0.50;0.50;;;22.50;97.80;;;;;;5110089;27;20453;-78